createdAt,value
2022-09-02T00:01:45.428Z,6.00
2022-09-02T00:04:17.987Z,4.40
2022-09-02T00:06:47.732Z,3.00
2022-09-02T00:09:18.709Z,3.60
2022-09-02T00:11:48.394Z,4.80
2022-09-02T00:14:27.795Z,4.10
2022-09-02T00:16:55.690Z,4.90
2022-09-02T00:19:26.111Z,4.10
2022-09-02T00:21:55.044Z,5.60
2022-09-02T00:24:25.520Z,4.10
2022-09-02T00:26:56.620Z,4.70
2022-09-02T00:29:26.943Z,5.30
2022-09-02T00:31:54.484Z,3.60
2022-09-02T00:34:22.536Z,5.70
2022-09-02T00:36:49.964Z,4.10
2022-09-02T00:39:17.444Z,4.10
2022-09-02T00:41:45.396Z,4.10
2022-09-02T00:44:17.036Z,3.70
2022-09-02T00:46:45.397Z,4.10
2022-09-02T00:49:18.600Z,4.10
2022-09-02T00:52:10.270Z,4.10
2022-09-02T00:54:46.303Z,4.50
2022-09-02T00:57:19.264Z,4.40
2022-09-02T01:00:01.885Z,4.70
2022-09-02T01:02:31.377Z,5.40
2022-09-02T01:05:00.320Z,4.50
2022-09-02T01:07:33.368Z,4.80
2022-09-02T01:10:02.799Z,5.50
2022-09-02T01:12:32.359Z,4.90
2022-09-02T01:15:00.152Z,4.70
2022-09-02T01:17:27.650Z,5.10
2022-09-02T01:20:00.106Z,5.20
2022-09-02T01:22:31.187Z,5.40
2022-09-02T01:25:06.092Z,4.80
2022-09-02T01:27:33.659Z,5.40
2022-09-02T01:30:01.843Z,4.80
2022-09-02T01:32:30.424Z,5.30
2022-09-02T01:34:58.971Z,5.00
2022-09-02T01:37:26.770Z,4.80
2022-09-02T01:39:54.973Z,4.50
2022-09-02T01:42:22.708Z,5.20
2022-09-02T01:44:50.448Z,5.00
2022-09-02T01:47:24.301Z,5.40
2022-09-02T01:49:52.182Z,5.40
2022-09-02T01:52:24.443Z,5.30
2022-09-02T01:54:52.177Z,4.90
2022-09-02T01:57:20.104Z,5.60
2022-09-02T01:59:47.526Z,6.10
2022-09-02T02:02:19.783Z,5.40
2022-09-02T02:04:48.766Z,5.40
2022-09-02T02:07:18.865Z,5.50
2022-09-02T02:09:46.330Z,5.50
2022-09-02T02:12:16.675Z,5.10
2022-09-02T02:14:44.403Z,5.40
2022-09-02T02:17:12.260Z,5.30
2022-09-02T02:19:41.430Z,4.80
2022-09-02T02:22:09.844Z,5.10
2022-09-02T02:24:37.539Z,4.90
2022-09-02T02:27:05.122Z,4.70
2022-09-02T02:29:32.720Z,4.80
2022-09-02T02:32:00.264Z,4.60
2022-09-02T02:34:30.364Z,4.60
2022-09-02T02:36:57.858Z,4.50
2022-09-02T02:39:25.484Z,5.00
2022-09-02T02:41:53.628Z,4.40
2022-09-02T02:44:21.053Z,4.40
2022-09-02T02:46:48.523Z,4.60
2022-09-02T02:49:16.646Z,4.10
2022-09-02T02:51:44.888Z,4.40
2022-09-02T02:54:14.007Z,4.50
2022-09-02T02:56:41.776Z,4.90
2022-09-02T02:59:09.354Z,4.60
2022-09-02T03:01:36.990Z,4.20
2022-09-02T03:04:05.671Z,4.60
2022-09-02T03:06:33.570Z,4.70
2022-09-02T03:09:01.844Z,4.80
2022-09-02T03:11:29.975Z,4.00
2022-09-02T03:13:58.423Z,4.10
2022-09-02T03:16:26.041Z,4.10
2022-09-02T03:18:54.019Z,4.10
2022-09-02T03:21:21.473Z,4.10
2022-09-02T03:23:49.391Z,4.20
2022-09-02T03:26:22.903Z,4.20
2022-09-02T03:28:51.423Z,4.20
2022-09-02T03:31:22.272Z,4.70
2022-09-02T03:33:49.963Z,4.50
2022-09-02T03:36:27.429Z,4.20
2022-09-02T03:38:56.284Z,4.60
2022-09-02T03:41:24.457Z,4.30
2022-09-02T03:43:52.932Z,4.40
2022-09-02T03:46:21.158Z,4.10
2022-09-02T03:48:51.489Z,4.10
2022-09-02T03:51:23.571Z,4.60
2022-09-02T03:53:51.197Z,4.60
2022-09-02T03:56:20.480Z,4.30
2022-09-02T03:58:50.092Z,4.20
2022-09-02T04:01:22.348Z,4.90
2022-09-02T04:03:51.146Z,4.20
2022-09-02T04:06:21.495Z,4.90
2022-09-02T04:08:49.345Z,4.60
2022-09-02T04:11:20.243Z,4.70
2022-09-02T04:13:51.684Z,4.80
2022-09-02T04:16:28.427Z,5.20
2022-09-02T04:19:01.311Z,4.80
2022-09-02T04:21:31.957Z,4.80
2022-09-02T04:23:59.513Z,4.60
2022-09-02T04:26:28.157Z,5.20
2022-09-02T04:28:57.096Z,4.50
2022-09-02T04:31:26.223Z,5.00
2022-09-02T04:33:54.175Z,5.00
2022-09-02T04:36:24.226Z,4.80
2022-09-02T04:38:55.757Z,4.60
2022-09-02T04:41:29.731Z,5.10
2022-09-02T04:43:59.892Z,4.30
2022-09-02T04:46:34.327Z,4.70
2022-09-02T04:49:06.605Z,4.30
2022-09-02T04:51:34.271Z,4.90
2022-09-02T04:54:02.594Z,5.10
2022-09-02T04:56:32.167Z,4.90
2022-09-02T04:59:00.589Z,5.00
2022-09-02T05:01:32.470Z,4.40
2022-09-02T05:04:06.929Z,4.70
2022-09-02T05:06:39.569Z,4.50
2022-09-02T05:09:15.051Z,4.40
2022-09-02T05:11:42.696Z,4.50
2022-09-02T05:14:12.554Z,5.00
2022-09-02T05:16:40.484Z,4.50
2022-09-02T05:19:12.189Z,4.30
2022-09-02T05:21:44.349Z,4.50
2022-09-02T05:24:15.859Z,4.50
2022-09-02T05:26:44.432Z,3.90
2022-09-02T05:29:13.798Z,4.10
2022-09-02T05:31:41.621Z,7.10
2022-09-02T05:34:11.585Z,4.40
2022-09-02T05:36:39.280Z,4.50
2022-09-02T05:39:06.863Z,4.20
2022-09-02T05:41:35.460Z,4.70
2022-09-02T05:44:04.871Z,5.10
2022-09-02T05:46:33.435Z,5.00
2022-09-02T05:49:08.359Z,5.70
2022-09-02T05:51:50.260Z,4.80
2022-09-02T05:54:30.899Z,5.00
2022-09-02T05:57:04.205Z,5.90
2022-09-02T05:59:34.887Z,4.80
2022-09-02T06:02:02.767Z,5.30
2022-09-02T06:04:31.646Z,5.40
2022-09-02T06:06:59.979Z,5.40
2022-09-02T06:09:27.549Z,4.60
2022-09-02T06:11:56.197Z,4.50
2022-09-02T06:14:27.308Z,5.10
2022-09-02T06:16:57.678Z,5.20
2022-09-02T06:19:34.719Z,5.30
2022-09-02T06:22:04.397Z,5.50
2022-09-02T06:24:33.396Z,5.00
2022-09-02T06:27:06.969Z,5.10
2022-09-02T06:29:35.403Z,5.10
2022-09-02T06:32:03.245Z,5.60
2022-09-02T06:34:30.720Z,5.00
2022-09-02T06:36:58.632Z,5.90
2022-09-02T06:39:26.088Z,6.30
2022-09-02T06:41:55.587Z,4.70
2022-09-02T06:44:23.498Z,4.80
2022-09-02T06:46:58.054Z,5.00
2022-09-02T06:49:28.040Z,5.20
2022-09-02T06:52:00.091Z,5.20
2022-09-02T06:54:30.861Z,6.60
2022-09-02T06:57:14.123Z,5.30
2022-09-02T06:59:41.478Z,4.60
2022-09-02T07:02:09.204Z,5.80
2022-09-02T07:04:57.680Z,7.80
2022-09-02T07:07:26.100Z,5.90
2022-09-02T07:09:58.440Z,6.20
2022-09-02T07:12:27.057Z,6.00
2022-09-02T07:15:02.684Z,5.90
2022-09-02T07:17:36.913Z,6.10
2022-09-02T07:20:07.201Z,5.30
2022-09-02T07:22:44.723Z,5.20
2022-09-02T07:25:14.895Z,5.80
2022-09-02T07:27:43.453Z,5.70
2022-09-02T07:30:12.326Z,5.60
2022-09-02T07:32:40.373Z,5.80
2022-09-02T07:35:13.703Z,6.20
2022-09-02T07:37:41.632Z,6.70
2022-09-02T07:40:11.128Z,5.50
2022-09-02T07:42:38.948Z,6.30
2022-09-02T07:45:08.542Z,6.10
2022-09-02T07:47:36.214Z,6.30
2022-09-02T07:50:22.050Z,5.90
2022-09-02T07:52:55.170Z,5.90
2022-09-02T07:55:23.958Z,6.70
2022-09-02T07:57:56.613Z,7.00
2022-09-02T08:00:27.054Z,7.00
2022-09-02T08:02:59.612Z,7.30
2022-09-02T08:05:34.907Z,6.70
2022-09-02T08:08:08.135Z,8.10
2022-09-02T08:10:37.375Z,7.30
2022-09-02T08:13:06.441Z,7.00
2022-09-02T08:15:35.940Z,6.20
2022-09-02T08:18:05.780Z,5.90
2022-09-02T08:20:39.776Z,6.00
2022-09-02T08:23:11.708Z,5.90
2022-09-02T08:25:46.664Z,5.50
2022-09-02T08:28:14.952Z,7.50
2022-09-02T08:30:42.637Z,5.80
2022-09-02T08:33:10.325Z,5.80
2022-09-02T08:35:43.087Z,6.30
2022-09-02T08:38:11.219Z,7.20
2022-09-02T08:40:41.488Z,6.00
2022-09-02T08:43:39.863Z,5.90
2022-09-02T08:46:11.902Z,4.70
2022-09-02T08:49:00.043Z,6.50
2022-09-02T08:51:37.384Z,5.80
2022-09-02T08:54:21.289Z,5.50
2022-09-02T08:56:51.802Z,5.90
2022-09-02T08:59:22.918Z,5.60
2022-09-02T09:02:05.473Z,6.00
2022-09-02T09:05:08.803Z,7.30
2022-09-02T09:07:52.443Z,6.60
2022-09-02T09:10:54.425Z,5.60
2022-09-02T09:14:11.160Z,5.10
2022-09-02T09:16:48.130Z,5.80
2022-09-02T09:19:45.131Z,5.20
2022-09-02T09:22:20.682Z,5.20
2022-09-02T09:24:50.328Z,5.00
2022-09-02T09:27:21.574Z,5.10
2022-09-02T09:29:51.090Z,7.80
2022-09-02T09:32:44.443Z,8.50
2022-09-02T09:35:16.761Z,6.00
2022-09-02T09:37:49.712Z,4.90
2022-09-02T09:40:23.122Z,5.10
2022-09-02T09:43:04.822Z,5.90
2022-09-02T09:45:47.852Z,5.70
2022-09-02T09:48:29.088Z,6.10
2022-09-02T09:50:56.339Z,5.80
2022-09-02T09:53:32.710Z,5.50
2022-09-02T09:56:27.333Z,5.70
2022-09-02T09:58:54.729Z,5.20
2022-09-02T10:01:28.164Z,5.60
2022-09-02T10:04:41.593Z,5.90
2022-09-02T10:07:06.809Z,5.90
2022-09-02T10:09:37.022Z,5.50
2022-09-02T10:12:07.919Z,5.20
2022-09-02T10:14:45.539Z,5.00
2022-09-02T10:17:32.620Z,5.50
2022-09-02T10:20:16.210Z,5.00
2022-09-02T10:23:21.810Z,5.50
2022-09-02T10:26:37.883Z,6.30
2022-09-02T10:29:59.379Z,5.10
2022-09-02T10:35:49.731Z,4.40
2022-09-02T10:38:43.920Z,4.60
2022-09-02T10:44:21.057Z,4.80
2022-09-02T10:47:03.730Z,4.60
2022-09-02T10:49:49.665Z,4.60
2022-09-02T10:52:33.219Z,3.50
2022-09-02T10:55:24.564Z,4.10
2022-09-02T10:57:57.632Z,4.00
2022-09-02T11:00:26.860Z,4.30
2022-09-02T11:03:20.179Z,3.90
2022-09-02T11:05:58.523Z,4.40
2022-09-02T11:08:53.577Z,4.20
2022-09-02T11:11:30.921Z,4.00
2022-09-02T11:14:26.860Z,4.00
2022-09-02T11:17:13.261Z,3.90
2022-09-02T11:20:10.024Z,4.00
2022-09-02T11:22:43.941Z,4.00
2022-09-02T11:25:16.469Z,3.70
2022-09-02T11:27:51.405Z,3.80
2022-09-02T11:30:22.387Z,3.60
2022-09-02T11:35:39.060Z,3.30
2022-09-02T11:38:42.162Z,3.50
2022-09-02T11:41:36.365Z,4.10
2022-09-02T11:44:31.358Z,4.20
2022-09-02T11:47:29.897Z,3.20
2022-09-02T11:50:26.320Z,3.60
2022-09-02T11:53:16.793Z,3.60
2022-09-02T11:56:04.980Z,3.40
2022-09-02T11:58:47.943Z,3.50
2022-09-02T12:01:15.560Z,3.60
2022-09-02T12:04:27.213Z,3.30
2022-09-02T12:07:19.485Z,3.50
2022-09-02T12:09:55.190Z,4.60
2022-09-02T12:12:41.067Z,3.40
2022-09-02T12:15:17.378Z,3.50
2022-09-02T12:17:47.579Z,4.40
2022-09-02T12:20:40.920Z,3.50
2022-09-02T12:23:10.824Z,4.10
2022-09-02T12:26:05.963Z,4.10
2022-09-02T12:28:33.854Z,4.10
2022-09-02T12:31:05.182Z,4.20
2022-09-02T12:33:35.028Z,4.10
2022-09-02T12:36:05.089Z,3.10
2022-09-02T12:38:35.686Z,4.60
2022-09-02T12:41:04.097Z,4.30
2022-09-02T12:43:57.393Z,4.10
2022-09-02T12:46:33.657Z,4.10
2022-09-02T12:49:35.163Z,4.30
2022-09-02T12:52:08.152Z,4.20
2022-09-02T12:54:38.465Z,4.20
2022-09-02T12:57:10.021Z,4.30
2022-09-02T12:59:41.248Z,4.10
2022-09-02T13:02:34.175Z,4.00
2022-09-02T13:05:28.674Z,6.40
2022-09-02T13:08:49.494Z,4.50
2022-09-02T13:11:43.465Z,3.90
2022-09-02T13:14:16.605Z,4.00
2022-09-02T13:17:19.188Z,3.80
2022-09-02T13:20:19.748Z,4.00
2022-09-02T13:23:13.614Z,4.00
2022-09-02T13:26:47.782Z,10.60
2022-09-02T13:29:28.049Z,5.50
2022-09-02T13:32:00.687Z,4.80
2022-09-02T13:34:30.131Z,4.20
2022-09-02T13:36:57.959Z,4.70
2022-09-02T13:39:28.251Z,4.70
2022-09-02T13:41:57.323Z,4.70
2022-09-02T13:44:30.994Z,4.70
2022-09-02T13:47:15.839Z,4.20
2022-09-02T13:49:46.997Z,4.00
2022-09-02T13:55:12.717Z,4.80
2022-09-02T13:57:44.674Z,4.60
2022-09-02T14:00:16.976Z,4.50
2022-09-02T14:03:01.483Z,4.50
2022-09-02T14:05:30.288Z,4.70
2022-09-02T14:08:00.362Z,4.10
2022-09-02T14:10:28.185Z,4.80
2022-09-02T14:12:56.892Z,5.10
2022-09-02T14:15:28.459Z,4.50
2022-09-02T14:18:21.584Z,4.60
2022-09-02T14:21:16.557Z,3.80
2022-09-02T14:23:50.801Z,4.10
2022-09-02T14:26:46.401Z,4.40
2022-09-02T14:29:17.311Z,4.40
2022-09-02T14:31:46.089Z,4.40
2022-09-02T14:34:37.211Z,4.10
2022-09-02T14:37:52.518Z,4.00
2022-09-02T14:40:33.181Z,4.20
2022-09-02T14:43:00.689Z,3.80
2022-09-02T14:45:34.345Z,4.20
2022-09-02T14:48:19.558Z,4.80
2022-09-02T14:50:46.979Z,4.40
2022-09-02T14:53:22.397Z,4.90
2022-09-02T14:55:53.638Z,3.50
2022-09-02T14:58:26.879Z,4.20
2022-09-02T15:00:58.642Z,4.10
2022-09-02T15:03:27.448Z,3.10
2022-09-02T15:05:54.915Z,4.10
2022-09-02T15:08:22.653Z,3.40
2022-09-02T15:10:50.153Z,4.00
2022-09-02T15:13:27.911Z,3.90
2022-09-02T15:15:56.115Z,3.60
2022-09-02T15:18:23.698Z,4.20
2022-09-02T15:20:51.877Z,3.80
2022-09-02T15:23:19.942Z,3.50
2022-09-02T15:25:50.261Z,4.00
2022-09-02T15:28:18.077Z,3.60
2022-09-02T15:30:45.497Z,3.60
2022-09-02T15:33:17.089Z,3.30
2022-09-02T15:35:47.062Z,2.80
2022-09-02T15:38:14.744Z,3.80
2022-09-02T15:40:43.112Z,3.60
2022-09-02T15:43:12.002Z,4.00
2022-09-02T15:45:47.575Z,3.30
2022-09-02T15:48:16.310Z,3.30
2022-09-02T15:50:43.546Z,4.00
2022-09-02T15:53:17.308Z,3.20
2022-09-02T15:55:44.863Z,3.40
2022-09-02T15:58:15.313Z,3.60
2022-09-02T16:00:43.886Z,3.20
2022-09-02T16:03:11.565Z,3.30
2022-09-02T16:05:39.419Z,3.60
2022-09-02T16:08:06.867Z,3.80
2022-09-02T16:10:36.865Z,3.60
2022-09-02T16:13:04.455Z,3.20
2022-09-02T16:15:34.381Z,3.60
2022-09-02T16:18:02.235Z,3.80
2022-09-02T16:20:29.619Z,4.10
2022-09-02T16:22:57.264Z,4.20
2022-09-02T16:25:24.752Z,4.80
2022-09-02T16:27:52.278Z,4.00
2022-09-02T16:30:19.846Z,4.40
2022-09-02T16:32:50.138Z,4.00
2022-09-02T16:35:17.501Z,3.90
2022-09-02T16:37:44.981Z,3.70
2022-09-02T16:40:20.690Z,3.50
2022-09-02T16:42:48.477Z,3.80
2022-09-02T16:45:16.014Z,3.50
2022-09-02T16:47:43.527Z,3.90
2022-09-02T16:50:12.152Z,2.80
2022-09-02T16:52:40.670Z,2.90
2022-09-02T16:55:08.417Z,3.00
2022-09-02T16:57:35.832Z,3.40
2022-09-02T17:00:05.473Z,3.30
2022-09-02T17:02:33.146Z,3.00
2022-09-02T17:05:00.540Z,3.10
2022-09-02T17:07:27.910Z,3.60
2022-09-02T17:09:55.200Z,3.10
2022-09-02T17:12:22.477Z,3.30
2022-09-02T17:14:49.930Z,3.50
2022-09-02T17:17:17.408Z,3.40
2022-09-02T17:19:45.021Z,3.20
2022-09-02T17:22:12.581Z,3.50
2022-09-02T17:24:41.600Z,3.10
2022-09-02T17:27:08.991Z,3.30
2022-09-02T17:29:51.641Z,3.20
2022-09-02T17:32:19.768Z,3.40
2022-09-02T17:34:49.270Z,4.50
2022-09-02T17:37:16.670Z,3.50
2022-09-02T17:39:44.350Z,3.10
2022-09-02T17:42:14.589Z,3.40
2022-09-02T17:44:42.488Z,3.20
2022-09-02T17:47:14.386Z,3.30
2022-09-02T17:49:44.020Z,3.70
2022-09-02T17:52:20.682Z,3.20
2022-09-02T17:54:57.565Z,3.00
2022-09-02T17:58:11.835Z,3.50
2022-09-02T18:00:45.406Z,3.30
2022-09-02T18:04:02.582Z,3.30
2022-09-02T18:06:33.623Z,3.30
2022-09-02T18:11:30.623Z,3.40
2022-09-02T18:14:28.775Z,3.30
2022-09-02T18:17:22.813Z,2.80
2022-09-02T18:20:06.115Z,3.00
2022-09-02T18:22:50.046Z,3.20
2022-09-02T18:25:56.666Z,4.20
2022-09-02T18:28:48.266Z,3.50
2022-09-02T18:32:12.639Z,3.60
2022-09-02T18:35:04.470Z,3.40
2022-09-02T18:38:00.791Z,4.00
2022-09-02T18:41:05.271Z,3.70
2022-09-02T18:44:16.820Z,3.40
2022-09-02T18:49:24.835Z,3.30
2022-09-02T18:51:59.742Z,3.30
2022-09-02T18:54:59.213Z,3.60
2022-09-02T18:57:33.557Z,3.40
2022-09-02T19:00:08.963Z,3.80
2022-09-02T19:02:54.368Z,3.80
2022-09-02T19:05:25.557Z,3.70
2022-09-02T19:11:08.293Z,3.70
2022-09-02T19:13:56.842Z,4.10
2022-09-02T19:16:29.170Z,3.60
2022-09-02T19:18:56.663Z,3.80
2022-09-02T19:21:40.454Z,3.90
2022-09-02T19:24:12.273Z,3.80
2022-09-02T19:26:42.999Z,3.90
2022-09-02T19:29:12.901Z,3.90
2022-09-02T19:31:42.202Z,3.80
2022-09-02T19:34:10.206Z,3.80
2022-09-02T19:36:40.473Z,3.50
2022-09-02T19:39:10.415Z,4.00
2022-09-02T19:41:38.974Z,3.80
2022-09-02T19:44:06.438Z,3.80
2022-09-02T19:47:20.715Z,3.80
2022-09-02T19:49:22.021Z,3.80
2022-09-02T19:51:49.986Z,4.30
2022-09-02T19:54:21.286Z,4.00
2022-09-02T19:56:49.333Z,3.70
2022-09-02T19:59:16.910Z,3.60
2022-09-02T20:01:44.589Z,3.30
2022-09-02T20:04:12.183Z,3.70
2022-09-02T20:06:39.643Z,3.60
2022-09-02T20:09:08.025Z,4.00
2022-09-02T20:11:37.116Z,3.40
2022-09-02T20:14:06.023Z,3.60
2022-09-02T20:16:33.830Z,3.40
2022-09-02T20:19:02.065Z,3.70
2022-09-02T20:21:43.255Z,3.70
2022-09-02T20:24:23.432Z,3.60
2022-09-02T20:27:21.981Z,3.90
2022-09-02T20:30:05.731Z,3.70
2022-09-02T20:32:57.895Z,4.00
2022-09-02T20:35:40.434Z,3.90
2022-09-02T20:38:17.299Z,3.80
2022-09-02T20:40:50.667Z,3.90
2022-09-02T20:43:45.026Z,3.80
2022-09-02T20:46:49.108Z,3.80
2022-09-02T20:49:29.022Z,3.60
2022-09-02T20:52:40.839Z,4.30
2022-09-02T20:55:31.552Z,4.10
2022-09-02T20:58:19.045Z,3.90
2022-09-02T21:01:01.442Z,4.40
2022-09-02T21:04:01.711Z,4.30
2022-09-02T21:06:34.345Z,3.80
2022-09-02T21:09:14.956Z,4.10
2022-09-02T21:11:53.051Z,4.20
2022-09-02T21:14:24.892Z,3.90
2022-09-02T21:17:00.979Z,4.60
2022-09-02T21:19:43.064Z,4.30
2022-09-02T21:22:28.797Z,4.30
2022-09-02T21:25:00.536Z,4.00
2022-09-02T21:27:35.210Z,4.20
2022-09-02T21:30:21.574Z,4.10
2022-09-02T21:33:01.766Z,3.90
2022-09-02T21:35:50.497Z,3.90
2022-09-02T21:38:44.586Z,4.30
2022-09-02T21:41:43.835Z,4.50
2022-09-02T21:44:39.493Z,4.40
2022-09-02T21:47:35.281Z,4.60
2022-09-02T21:50:28.561Z,4.40
2022-09-02T21:53:08.746Z,4.30
2022-09-02T21:56:11.966Z,4.40
2022-09-02T21:59:14.154Z,3.90
2022-09-02T22:02:01.185Z,4.00
2022-09-02T22:05:09.327Z,3.90
2022-09-02T22:07:48.726Z,3.80
2022-09-02T22:10:30.993Z,3.90
2022-09-02T22:13:02.932Z,4.80
2022-09-02T22:16:21.364Z,4.20
2022-09-02T22:19:08.218Z,4.20
2022-09-02T22:21:53.558Z,4.30
2022-09-02T22:24:29.301Z,5.00
2022-09-02T22:27:20.518Z,4.80
2022-09-02T22:29:54.512Z,5.80
2022-09-02T22:32:31.411Z,4.40
2022-09-02T22:35:09.039Z,5.80
2022-09-02T22:38:09.189Z,5.00
2022-09-02T22:40:44.532Z,4.80
2022-09-02T22:43:15.573Z,6.90
2022-09-02T22:46:11.765Z,6.30
2022-09-02T22:49:08.424Z,7.00
2022-09-02T22:52:25.303Z,7.50
2022-09-02T22:54:53.320Z,7.70
2022-09-02T22:57:56.541Z,5.10
2022-09-02T23:00:26.182Z,4.60
2022-09-02T23:03:12.812Z,4.60
2022-09-02T23:05:50.076Z,4.90
2022-09-02T23:08:21.051Z,4.60
2022-09-02T23:11:02.428Z,4.70
2022-09-02T23:13:53.423Z,5.20
2022-09-02T23:16:31.510Z,4.60
2022-09-02T23:19:22.745Z,4.90
2022-09-02T23:22:11.411Z,4.70
2022-09-02T23:25:15.164Z,5.10
2022-09-02T23:27:46.518Z,5.30
2022-09-02T23:33:17.373Z,5.20
2022-09-02T23:36:11.244Z,4.90
2022-09-02T23:38:52.338Z,4.50
2022-09-02T23:41:19.997Z,5.00
2022-09-02T23:43:49.269Z,4.90
2022-09-02T23:46:42.942Z,5.30
2022-09-02T23:49:52.869Z,4.70
2022-09-02T23:52:32.981Z,4.60
2022-09-02T23:55:03.355Z,5.30
2022-09-02T23:57:51.164Z,5.10
